Time;durP1;ratioP1;P1;durP2;ratioP2;P2;SDS_P1;SDS_P2;PMS_P1;PMS_P2;Temp;Humidity;BMP_temperature;BMP_pressure;BME280_temperature;BME280_humidity;BME280_pressure;Samples;Min_cycle;Max_cycle;Signal;HPM_P1;HPM_P2
2021/04/09 00:00:57;;;;;;;14.52;7.65;;;2.70;99.90;;;;;;5088391;28;20588;-46
2021/04/09 00:03:23;;;;;;;12.55;7.65;;;2.70;99.90;;;;;;5087831;28;20035;-45
2021/04/09 00:05:48;;;;;;;15.00;8.55;;;2.60;99.90;;;;;;5097187;28;20513;-46
2021/04/09 00:08:14;;;;;;;11.48;7.43;;;2.60;99.90;;;;;;5095662;28;20031;-47
2021/04/09 00:10:39;;;;;;;18.23;7.82;;;2.60;99.90;;;;;;5087780;28;20031;-45
2021/04/09 00:13:07;;;;;;;13.00;7.35;;;2.60;99.90;;;;;;5087671;28;20031;-47
2021/04/09 00:15:34;;;;;;;14.40;7.68;;;2.60;99.90;;;;;;5091585;28;20247;-46
2021/04/09 00:18:00;;;;;;;16.98;7.63;;;2.60;99.90;;;;;;5090937;28;20264;-45
2021/04/09 00:20:26;;;;;;;15.77;7.55;;;2.50;99.90;;;;;;5087979;28;20028;-45
2021/04/09 00:22:52;;;;;;;15.65;8.00;;;2.50;99.90;;;;;;5086762;28;20024;-46
2021/04/09 00:25:20;;;;;;;19.67;8.18;;;2.50;99.90;;;;;;5087419;28;20461;-45
2021/04/09 00:27:45;;;;;;;9.27;6.47;;;2.50;99.90;;;;;;5087348;28;20268;-45
2021/04/09 00:30:17;;;;;;;12.85;6.88;;;2.50;99.90;;;;;;5086788;28;20050;-45
2021/04/09 00:32:44;;;;;;;19.33;6.78;;;2.50;99.90;;;;;;5086283;28;20149;-45
2021/04/09 00:35:10;;;;;;;15.35;6.88;;;2.50;99.90;;;;;;5078584;28;20437;-45
2021/04/09 00:37:36;;;;;;;12.85;6.50;;;2.60;99.90;;;;;;5102765;28;20503;-46
2021/04/09 00:40:02;;;;;;;13.93;6.60;;;2.60;99.90;;;;;;5107392;28;20032;-45
2021/04/09 00:42:27;;;;;;;13.27;6.75;;;2.70;99.90;;;;;;5091439;28;20024;-47
2021/04/09 00:44:56;;;;;;;15.00;5.88;;;2.70;99.90;;;;;;5086731;28;20397;-45
2021/04/09 00:47:24;;;;;;;8.82;5.72;;;2.70;99.90;;;;;;5096846;28;20078;-47
2021/04/09 00:49:49;;;;;;;11.23;5.85;;;2.80;99.90;;;;;;5084239;28;20055;-47
2021/04/09 00:52:15;;;;;;;8.70;5.78;;;2.80;99.90;;;;;;5087019;28;20570;-45
2021/04/09 00:54:40;;;;;;;12.85;6.05;;;2.90;99.90;;;;;;5085853;28;20140;-46
2021/04/09 00:57:06;;;;;;;11.27;6.00;;;2.90;99.90;;;;;;5087119;28;20478;-51
2021/04/09 00:59:34;;;;;;;8.90;5.32;;;2.90;99.90;;;;;;5097643;28;20508;-46
2021/04/09 01:01:59;;;;;;;10.95;5.72;;;2.90;99.80;;;;;;5086434;28;20058;-48
2021/04/09 01:04:25;;;;;;;16.98;6.13;;;2.90;99.90;;;;;;5085357;28;20143;-46
2021/04/09 01:06:50;;;;;;;7.25;4.95;;;3.00;99.70;;;;;;5086149;28;20228;-45
2021/04/09 01:09:16;;;;;;;11.13;5.75;;;3.00;99.60;;;;;;5085378;28;20032;-48
2021/04/09 01:11:42;;;;;;;14.55;6.18;;;3.00;99.80;;;;;;5086199;28;20028;-45
2021/04/09 01:14:09;;;;;;;13.07;5.75;;;3.00;99.60;;;;;;5066683;28;20377;-46
2021/04/09 01:16:50;;;;;;;10.27;5.53;;;3.10;98.90;;;;;;5086008;28;20016;-48
2021/04/09 01:19:37;;;;;;;12.90;6.85;;;3.00;99.00;;;;;;5095603;28;20115;-46
2021/04/09 01:22:06;;;;;;;16.80;6.40;;;3.00;99.90;;;;;;5106580;28;20124;-50
2021/04/09 01:25:09;;;;;;;10.10;5.63;;;3.10;99.10;;;;;;5091045;28;20019;-48
2021/04/09 01:28:12;;;;;;;11.63;5.13;;;3.10;99.00;;;;;;5052667;28;20044;-49
2021/04/09 01:30:52;;;;;;;11.45;5.32;;;3.10;98.70;;;;;;5064085;28;20514;-47
2021/04/09 01:33:19;;;;;;;12.30;5.03;;;3.10;98.80;;;;;;5047097;28;20032;-46
2021/04/09 01:35:46;;;;;;;14.85;5.13;;;3.10;98.70;;;;;;5079938;28;20039;-47
2021/04/09 01:38:17;;;;;;;16.40;6.20;;;3.20;98.70;;;;;;5085000;28;20024;-48
2021/04/09 01:40:44;;;;;;;;;;;3.20;98.50;;;;;;5085989;28;20215;-46
2021/04/09 01:43:19;;;;;;;7.90;4.75;;;3.20;98.70;;;;;;5084225;28;19908;-48
2021/04/09 01:45:47;;;;;;;8.45;5.20;;;3.20;99.00;;;;;;5085671;28;20039;-46
2021/04/09 01:48:13;;;;;;;12.02;5.45;;;3.20;98.70;;;;;;5102536;28;20046;-46
2021/04/09 01:50:40;;;;;;;13.85;5.78;;;3.10;98.60;;;;;;5106217;28;20389;-47
2021/04/09 01:53:09;;;;;;;9.77;5.10;;;3.10;98.70;;;;;;5106389;28;20698;-46
2021/04/09 01:55:39;;;;;;;12.75;5.22;;;3.10;98.80;;;;;;5106681;28;20062;-45
2021/04/09 01:58:06;;;;;;;;;;;3.10;98.70;;;;;;5090393;28;20040;-47
2021/04/09 02:00:32;;;;;;;16.95;5.60;;;3.10;98.50;;;;;;5085190;28;20269;-47
2021/04/09 02:02:59;;;;;;;13.20;5.35;;;3.20;98.40;;;;;;5085753;28;20058;-45
2021/04/09 02:05:28;;;;;;;10.63;5.40;;;3.10;98.50;;;;;;5085702;28;20517;-46
2021/04/09 02:07:56;;;;;;;11.05;5.38;;;3.10;98.40;;;;;;5092387;28;20444;-47
2021/04/09 02:10:22;;;;;;;11.48;4.70;;;3.10;98.40;;;;;;5073747;28;20030;-46
2021/04/09 02:12:48;;;;;;;11.93;5.32;;;3.10;98.30;;;;;;5068569;28;20512;-49
2021/04/09 02:15:22;;;;;;;15.50;5.40;;;3.10;98.60;;;;;;5085712;28;20059;-46
2021/04/09 02:17:48;;;;;;;12.23;5.80;;;3.10;98.70;;;;;;5092760;28;20285;-46
2021/04/09 02:20:16;;;;;;;14.27;5.75;;;3.10;98.60;;;;;;5106200;28;20204;-46
2021/04/09 02:22:43;;;;;;;9.45;4.85;;;3.10;98.80;;;;;;5092994;28;20055;-46
2021/04/09 02:25:10;;;;;;;12.35;5.57;;;3.00;98.80;;;;;;5085706;28;20036;-47
2021/04/09 02:27:37;;;;;;;9.40;5.07;;;3.00;99.40;;;;;;5088117;28;20024;-46
2021/04/09 02:30:10;;;;;;;13.30;4.85;;;3.00;99.00;;;;;;5106709;28;20431;-46
2021/04/09 02:32:35;;;;;;;11.43;5.57;;;3.00;99.10;;;;;;5097668;28;20063;-47
2021/04/09 02:35:01;;;;;;;15.60;5.82;;;3.00;99.00;;;;;;5081753;28;20021;-46
2021/04/09 02:37:27;;;;;;;21.20;6.15;;;3.10;99.20;;;;;;5076421;28;20028;-47
2021/04/09 02:39:56;;;;;;;11.10;5.40;;;3.00;99.30;;;;;;5108080;28;20035;-47
2021/04/09 02:42:22;;;;;;;11.70;6.10;;;3.10;99.30;;;;;;5107674;28;20118;-46
2021/04/09 02:44:48;;;;;;;8.65;5.53;;;3.10;99.10;;;;;;5088584;28;20032;-47
2021/04/09 02:47:26;;;;;;;13.68;6.25;;;3.10;99.40;;;;;;5071525;28;20042;-46
2021/04/09 02:50:04;;;;;;;11.70;5.50;;;3.10;99.30;;;;;;5104907;28;20119;-48
2021/04/09 02:52:32;;;;;;;20.52;6.40;;;3.00;99.30;;;;;;5110363;28;20012;-47
2021/04/09 02:55:07;;;;;;;8.05;5.30;;;3.10;99.10;;;;;;5109058;28;20026;-47
2021/04/09 02:57:35;;;;;;;16.70;5.97;;;3.10;98.90;;;;;;5096911;28;20063;-46
2021/04/09 03:00:10;;;;;;;12.85;6.03;;;3.20;98.80;;;;;;5103253;28;20066;-47
2021/04/09 03:02:38;;;;;;;14.35;6.47;;;3.20;98.70;;;;;;5109983;28;20028;-47
2021/04/09 03:05:09;;;;;;;14.70;6.45;;;3.30;98.50;;;;;;5077503;28;20035;-47
2021/04/09 03:07:38;;;;;;;13.32;6.32;;;3.30;98.20;;;;;;5089161;28;20028;-46
2021/04/09 03:10:08;;;;;;;9.80;5.22;;;3.40;97.80;;;;;;5096740;28;20051;-47
2021/04/09 03:12:34;;;;;;;12.25;5.90;;;3.50;98.00;;;;;;5088193;28;20044;-47
2021/04/09 03:15:01;;;;;;;13.00;5.20;;;3.60;97.30;;;;;;5088360;28;20241;-49
2021/04/09 03:17:30;;;;;;;14.05;6.00;;;3.60;97.00;;;;;;5071077;28;20035;-46
2021/04/09 03:19:57;;;;;;;15.73;6.20;;;3.60;97.00;;;;;;5097205;28;20532;-48
2021/04/09 03:22:23;;;;;;;13.93;5.88;;;3.60;97.00;;;;;;5109435;28;20041;-46
2021/04/09 03:24:48;;;;;;;12.20;6.93;;;3.70;96.90;;;;;;5087430;28;20111;-47
2021/04/09 03:27:15;;;;;;;14.75;6.28;;;3.80;96.40;;;;;;5088726;28;20059;-46
2021/04/09 03:29:44;;;;;;;9.35;6.47;;;3.90;96.00;;;;;;5091274;28;20069;-46
2021/04/09 03:32:11;;;;;;;12.00;6.43;;;3.90;96.10;;;;;;5108969;28;20032;-48
2021/04/09 03:34:38;;;;;;;18.20;6.55;;;4.00;96.00;;;;;;5106656;28;20378;-46
2021/04/09 03:37:03;;;;;;;16.33;6.40;;;4.00;95.60;;;;;;5084669;28;20024;-46
2021/04/09 03:39:29;;;;;;;13.00;6.15;;;4.00;95.60;;;;;;5088164;28;20040;-46
2021/04/09 03:41:54;;;;;;;11.27;6.35;;;4.20;95.40;;;;;;5076870;28;20033;-47
2021/04/09 03:44:20;;;;;;;12.73;5.93;;;4.20;95.10;;;;;;5067668;28;20379;-48
2021/04/09 03:46:45;;;;;;;13.35;6.55;;;4.10;95.50;;;;;;5072849;28;20569;-47
2021/04/09 03:49:11;;;;;;;13.00;6.43;;;4.10;95.10;;;;;;5088554;28;20016;-46
2021/04/09 03:51:37;;;;;;;15.82;7.25;;;4.20;95.20;;;;;;5100910;28;20087;-47
2021/04/09 03:54:03;;;;;;;12.77;6.43;;;4.20;95.00;;;;;;5087031;28;20103;-49
2021/04/09 03:56:28;;;;;;;13.55;6.57;;;4.20;94.80;;;;;;5088704;28;20028;-47
2021/04/09 03:58:54;;;;;;;17.02;7.40;;;4.20;95.30;;;;;;5087378;28;20028;-47
2021/04/09 04:01:19;;;;;;;15.88;7.35;;;4.10;95.20;;;;;;5074934;28;20028;-47
2021/04/09 04:03:48;;;;;;;13.48;6.63;;;4.10;95.20;;;;;;5087458;28;20031;-47
2021/04/09 04:06:14;;;;;;;17.92;6.45;;;4.20;95.40;;;;;;5088206;28;20043;-46
2021/04/09 04:08:40;;;;;;;11.68;6.60;;;4.10;95.10;;;;;;5087293;28;20060;-47
2021/04/09 04:11:05;;;;;;;14.23;6.65;;;4.10;95.30;;;;;;5089270;28;20116;-48
2021/04/09 04:13:31;;;;;;;18.45;7.32;;;4.20;95.20;;;;;;5099640;28;20157;-46
2021/04/09 04:15:57;;;;;;;12.82;6.53;;;4.20;95.10;;;;;;5069313;28;20032;-46
2021/04/09 04:18:23;;;;;;;12.52;6.70;;;4.20;94.80;;;;;;5087695;28;20268;-45
2021/04/09 04:20:48;;;;;;;16.00;7.03;;;4.30;94.70;;;;;;5087143;28;20032;-46
2021/04/09 04:23:14;;;;;;;12.32;7.00;;;4.20;95.20;;;;;;5105635;28;20492;-46
2021/04/09 04:25:39;;;;;;;19.92;7.03;;;4.30;94.90;;;;;;5076837;28;20043;-45
2021/04/09 04:28:05;;;;;;;14.40;6.65;;;4.30;94.60;;;;;;5087201;28;20032;-46
2021/04/09 04:30:30;;;;;;;13.35;5.88;;;4.30;94.70;;;;;;5087207;28;20028;-47
2021/04/09 04:32:56;;;;;;;13.70;7.43;;;4.30;95.10;;;;;;5085101;28;20039;-46
2021/04/09 04:35:21;;;;;;;12.90;7.32;;;4.20;95.30;;;;;;5086747;28;20030;-47
2021/04/09 04:37:47;;;;;;;16.23;6.70;;;4.30;94.90;;;;;;5085854;28;20038;-46
2021/04/09 04:40:13;;;;;;;15.10;8.13;;;4.30;95.30;;;;;;5082537;28;20071;-46
2021/04/09 04:42:38;;;;;;;14.93;7.55;;;4.40;94.80;;;;;;5094070;28;20059;-47
2021/04/09 04:45:05;;;;;;;13.63;7.25;;;4.50;94.60;;;;;;5085579;28;20431;-44
2021/04/09 04:47:30;;;;;;;12.93;7.40;;;4.40;94.80;;;;;;5086486;28;20031;-47
2021/04/09 04:49:56;;;;;;;12.00;6.78;;;4.30;95.10;;;;;;5086984;28;20016;-47
2021/04/09 04:52:21;;;;;;;15.40;7.03;;;4.40;95.20;;;;;;5088994;28;20405;-46
2021/04/09 04:54:47;;;;;;;14.35;7.45;;;4.40;95.10;;;;;;5085436;28;20067;-44
2021/04/09 04:57:13;;;;;;;15.45;7.07;;;4.40;95.20;;;;;;5086148;28;20536;-45
2021/04/09 04:59:39;;;;;;;13.98;7.78;;;4.50;95.20;;;;;;5080184;28;20495;-45
2021/04/09 05:02:04;;;;;;;14.38;7.78;;;4.40;95.00;;;;;;5081333;28;20130;-47
2021/04/09 05:04:30;;;;;;;14.23;7.50;;;4.50;95.10;;;;;;5081217;28;20054;-45
2021/04/09 05:06:55;;;;;;;18.00;7.32;;;4.50;95.20;;;;;;5082988;28;20527;-45
2021/04/09 05:09:21;;;;;;;19.30;7.03;;;4.60;94.80;;;;;;5082426;28;20066;-45
2021/04/09 05:11:46;;;;;;;14.25;7.63;;;4.60;95.00;;;;;;5080034;28;20509;-45
2021/04/09 05:14:11;;;;;;;13.82;7.65;;;4.60;94.70;;;;;;5080115;28;20020;-46
2021/04/09 05:16:37;;;;;;;14.57;7.13;;;4.70;94.80;;;;;;5086021;28;20042;-45
2021/04/09 05:19:02;;;;;;;12.52;7.88;;;4.70;95.10;;;;;;5082966;28;20482;-47
2021/04/09 05:21:28;;;;;;;18.73;7.30;;;4.70;94.70;;;;;;5082075;28;20128;-46
2021/04/09 05:23:54;;;;;;;15.30;7.25;;;4.70;94.90;;;;;;5082232;28;20027;-46
2021/04/09 05:26:20;;;;;;;17.65;7.45;;;4.80;94.60;;;;;;5083091;28;20409;-47
2021/04/09 05:28:46;;;;;;;12.60;7.05;;;5.00;94.60;;;;;;5081242;28;20032;-45
2021/04/09 05:31:11;;;;;;;13.43;6.95;;;5.00;94.20;;;;;;5082443;28;20147;-45
2021/04/09 05:33:37;;;;;;;12.60;6.95;;;5.00;94.10;;;;;;5069151;28;20024;-46
2021/04/09 05:36:02;;;;;;;24.58;7.95;;;5.00;94.40;;;;;;5086297;28;20525;-46
2021/04/09 05:38:28;;;;;;;17.77;8.32;;;5.00;94.10;;;;;;5075326;28;20392;-45
2021/04/09 05:40:53;;;;;;;16.48;7.20;;;5.10;94.00;;;;;;5082519;28;20489;-45
2021/04/09 05:43:19;;;;;;;16.27;7.68;;;5.10;94.50;;;;;;5085446;28;20016;-48
2021/04/09 05:45:44;;;;;;;17.77;7.85;;;5.10;93.90;;;;;;5078639;28;20020;-48
2021/04/09 05:48:10;;;;;;;15.48;7.90;;;5.30;93.60;;;;;;5079093;28;20485;-45
2021/04/09 05:50:36;;;;;;;16.75;7.75;;;5.30;94.10;;;;;;5082470;28;20115;-45
2021/04/09 05:53:03;;;;;;;12.50;6.63;;;5.30;93.90;;;;;;5081228;28;20043;-45
2021/04/09 05:55:28;;;;;;;18.30;8.70;;;5.40;93.80;;;;;;5083836;28;20082;-46
2021/04/09 05:57:54;;;;;;;18.67;7.93;;;5.40;93.50;;;;;;5082676;28;20060;-46
2021/04/09 06:00:20;;;;;;;21.27;8.18;;;5.50;93.30;;;;;;5084897;28;20505;-47
2021/04/09 06:02:46;;;;;;;16.70;7.72;;;5.60;93.00;;;;;;5086325;28;20035;-49
2021/04/09 06:05:12;;;;;;;16.42;7.30;;;5.60;93.30;;;;;;5090652;28;20019;-46
2021/04/09 06:07:38;;;;;;;21.35;8.85;;;5.70;92.70;;;;;;5095302;28;20492;-45
2021/04/09 06:10:05;;;;;;;15.02;7.53;;;5.70;92.60;;;;;;5085217;28;20034;-46
2021/04/09 06:12:31;;;;;;;12.68;7.18;;;5.70;92.90;;;;;;5086657;28;20135;-46
2021/04/09 06:14:56;;;;;;;20.05;8.00;;;5.80;92.60;;;;;;5087626;28;20592;-49
2021/04/09 06:17:21;;;;;;;13.25;8.13;;;5.90;92.60;;;;;;5094283;28;20031;-46
2021/04/09 06:19:47;;;;;;;14.18;7.38;;;6.00;92.10;;;;;;5088473;28;20068;-45
2021/04/09 06:22:15;;;;;;;13.73;7.90;;;6.00;91.90;;;;;;5065663;28;20090;-47
2021/04/09 06:24:42;;;;;;;15.48;8.02;;;6.00;92.20;;;;;;5084654;28;20100;-49
2021/04/09 06:27:08;;;;;;;14.68;7.68;;;6.20;92.10;;;;;;5082782;28;20033;-46
2021/04/09 06:29:34;;;;;;;20.85;9.15;;;6.30;91.30;;;;;;5085257;28;20539;-45
2021/04/09 06:31:59;;;;;;;17.05;8.52;;;6.50;91.10;;;;;;5082053;28;20036;-46
2021/04/09 06:34:25;;;;;;;15.88;7.47;;;6.50;90.90;;;;;;5070332;28;20038;-45
2021/04/09 06:36:51;;;;;;;13.23;7.35;;;6.60;91.20;;;;;;5084402;28;20024;-46
2021/04/09 06:39:16;;;;;;;14.45;7.15;;;6.80;90.50;;;;;;5079767;28;20024;-47
2021/04/09 06:41:42;;;;;;;14.98;7.85;;;6.90;90.10;;;;;;5081081;28;20259;-45
2021/04/09 06:44:08;;;;;;;19.75;9.15;;;7.00;89.00;;;;;;5057064;28;20024;-44
2021/04/09 06:46:34;;;;;;;16.25;7.93;;;7.00;89.00;;;;;;5088874;28;20042;-48
2021/04/09 06:48:59;;;;;;;15.25;7.13;;;7.10;89.10;;;;;;5110237;28;20027;-46
2021/04/09 06:51:26;;;;;;;12.70;6.32;;;7.20;88.40;;;;;;5083141;28;20023;-48
2021/04/09 06:53:53;;;;;;;14.80;8.13;;;7.30;87.90;;;;;;5082875;28;20036;-46
2021/04/09 06:56:22;;;;;;;16.17;7.82;;;7.30;86.20;;;;;;5085006;28;20030;-46
2021/04/09 06:58:48;;;;;;;13.60;7.25;;;7.40;85.00;;;;;;5087289;28;20073;-48
2021/04/09 07:01:20;;;;;;;12.77;7.03;;;7.40;85.70;;;;;;5084992;28;20047;-49
2021/04/09 07:03:45;;;;;;;13.90;7.20;;;7.40;85.30;;;;;;5081695;28;20028;-47
2021/04/09 07:06:11;;;;;;;16.58;6.80;;;7.50;84.50;;;;;;5084297;28;20031;-46
2021/04/09 07:08:40;;;;;;;18.48;7.43;;;7.60;83.90;;;;;;5076590;28;20064;-46
2021/04/09 07:11:06;;;;;;;12.00;7.13;;;7.70;83.60;;;;;;5068650;28;20105;-47
2021/04/09 07:13:32;;;;;;;14.63;7.15;;;7.80;82.80;;;;;;5075208;28;20107;-50
2021/04/09 07:16:08;;;;;;;11.00;6.95;;;7.70;83.20;;;;;;5076779;28;20485;-47
2021/04/09 07:19:06;;;;;;;12.65;7.13;;;7.90;83.20;;;;;;5089156;28;20027;-47
2021/04/09 07:21:34;;;;;;;11.32;7.40;;;7.90;83.20;;;;;;5041101;28;20580;-46
2021/04/09 07:24:17;;;;;;;11.80;7.15;;;8.10;83.20;;;;;;5094240;28;20047;-46
2021/04/09 07:26:45;;;;;;;14.82;6.93;;;8.00;81.50;;;;;;5094376;28;20031;-46
2021/04/09 07:29:34;;;;;;;14.90;7.00;;;8.40;81.60;;;;;;5091645;28;20095;-46
2021/04/09 07:32:22;;;;;;;13.13;6.88;;;8.60;80.10;;;;;;5089874;28;20078;-45
2021/04/09 07:34:59;;;;;;;12.48;6.35;;;8.90;78.20;;;;;;5088962;28;20016;-45
2021/04/09 07:37:32;;;;;;;12.57;7.05;;;9.10;78.80;;;;;;5090074;28;20103;-46
2021/04/09 07:40:02;;;;;;;16.42;6.93;;;9.20;77.40;;;;;;5103543;28;20023;-47
2021/04/09 07:42:37;;;;;;;22.13;6.97;;;9.40;76.10;;;;;;5091795;28;20229;-47
2021/04/09 07:45:12;;;;;;;14.93;7.18;;;9.60;74.60;;;;;;5089869;28;20024;-47
2021/04/09 07:47:40;;;;;;;12.10;6.93;;;9.30;75.60;;;;;;5085124;28;20512;-46
2021/04/09 07:50:10;;;;;;;13.20;7.28;;;9.60;74.20;;;;;;5087994;28;20020;-46
2021/04/09 07:52:46;;;;;;;13.63;6.72;;;9.80;73.20;;;;;;5082790;28;20028;-46
2021/04/09 07:55:17;;;;;;;12.50;6.80;;;9.70;73.30;;;;;;5064395;28;20012;-47
2021/04/09 07:57:43;;;;;;;12.80;6.85;;;9.90;72.80;;;;;;5091105;28;20031;-47
2021/04/09 08:00:22;;;;;;;13.90;6.45;;;10.20;71.00;;;;;;5088901;28;20036;-48
2021/04/09 08:02:49;;;;;;;11.30;6.32;;;10.40;69.90;;;;;;5092765;28;20027;-47
2021/04/09 08:05:17;;;;;;;12.43;6.32;;;10.80;69.30;;;;;;5094434;28;20028;-46
2021/04/09 08:07:42;;;;;;;13.57;6.68;;;11.40;67.00;;;;;;5085956;28;20039;-47
2021/04/09 08:10:13;;;;;;;11.30;6.47;;;12.00;65.30;;;;;;5084640;28;20031;-47
2021/04/09 08:12:39;;;;;;;13.48;6.03;;;12.00;63.40;;;;;;5070610;28;20020;-47
2021/04/09 08:15:17;;;;;;;12.15;6.28;;;12.40;62.30;;;;;;5098775;28;20119;-47
2021/04/09 08:17:54;;;;;;;9.82;5.80;;;13.00;60.10;;;;;;5102959;28;20114;-46
2021/04/09 08:20:20;;;;;;;8.60;6.25;;;13.40;58.50;;;;;;5089913;28;20039;-49
2021/04/09 08:22:46;;;;;;;10.20;6.38;;;13.50;56.50;;;;;;5102750;28;20027;-50
2021/04/09 08:25:13;;;;;;;15.15;6.65;;;13.50;58.70;;;;;;5088726;28;20119;-49
2021/04/09 08:27:39;;;;;;;12.80;6.22;;;13.00;56.90;;;;;;5088334;28;20024;-48
2021/04/09 08:30:05;;;;;;;13.20;6.65;;;13.00;57.30;;;;;;5098984;28;20513;-51
2021/04/09 08:32:32;;;;;;;11.85;6.30;;;13.60;57.30;;;;;;5099136;28;20036;-49
2021/04/09 08:34:59;;;;;;;14.55;7.15;;;14.70;54.90;;;;;;5088974;28;20051;-49
2021/04/09 08:37:24;;;;;;;13.80;6.07;;;14.90;52.70;;;;;;5095997;28;20054;-49
2021/04/09 08:39:51;;;;;;;7.60;5.60;;;15.40;50.90;;;;;;5087460;28;20127;-51
2021/04/09 08:42:17;;;;;;;10.30;5.60;;;14.90;52.20;;;;;;5076373;28;20027;-50
2021/04/09 08:44:45;;;;;;;8.50;6.20;;;16.00;51.00;;;;;;5089402;28;20032;-50
2021/04/09 08:47:14;;;;;;;12.05;6.38;;;17.20;47.80;;;;;;5075371;28;20028;-49
2021/04/09 08:49:40;;;;;;;10.25;5.43;;;16.30;47.10;;;;;;5080116;28;20495;-49
2021/04/09 08:52:07;;;;;;;11.63;6.20;;;17.70;46.00;;;;;;5086638;28;20040;-51
2021/04/09 08:54:33;;;;;;;15.50;6.38;;;17.40;45.40;;;;;;5074712;28;20029;-51
2021/04/09 08:57:01;;;;;;;13.65;6.32;;;17.40;45.60;;;;;;5079865;28;20028;-51
2021/04/09 08:59:49;;;;;;;11.20;5.80;;;16.40;47.00;;;;;;5079878;28;20027;-50
2021/04/09 09:02:22;;;;;;;12.95;6.80;;;16.40;45.60;;;;;;5086130;28;20037;-49
2021/04/09 09:04:58;;;;;;;10.02;6.13;;;17.70;44.80;;;;;;5066727;28;20173;-48
2021/04/09 09:07:43;;;;;;;12.15;7.10;;;18.60;44.10;;;;;;5083569;28;20097;-50
2021/04/09 09:10:29;;;;;;;9.68;6.35;;;18.80;41.90;;;;;;5077844;28;20024;-50
2021/04/09 09:13:12;;;;;;;14.77;6.93;;;18.70;42.60;;;;;;5084630;28;20287;-51
2021/04/09 09:15:54;;;;;;;15.55;6.35;;;18.90;41.90;;;;;;5083846;28;20058;-51
2021/04/09 09:18:22;;;;;;;14.02;7.40;;;18.00;42.80;;;;;;5089268;28;20032;-51
2021/04/09 09:21:09;;;;;;;15.30;7.22;;;17.60;43.60;;;;;;5073200;28;20024;-50
2021/04/09 09:23:58;;;;;;;14.02;6.78;;;17.40;44.20;;;;;;5095356;28;20039;-48
2021/04/09 09:26:44;;;;;;;12.65;7.00;;;17.10;44.90;;;;;;5075179;28;20020;-52
2021/04/09 09:29:28;;;;;;;10.98;7.60;;;16.90;46.40;;;;;;5092231;28;20020;-49
2021/04/09 09:32:02;;;;;;;13.77;7.70;;;17.20;45.00;;;;;;5070383;28;20024;-50
2021/04/09 09:34:30;;;;;;;14.13;7.28;;;17.30;45.10;;;;;;5076763;28;20044;-51
2021/04/09 09:37:27;;;;;;;15.82;8.20;;;17.40;44.90;;;;;;5066805;28;20032;-51
2021/04/09 09:39:58;;;;;;;13.60;7.63;;;16.00;45.80;;;;;;5066689;28;20028;-51
2021/04/09 09:42:25;;;;;;;;;;;16.30;48.30;;;;;;5072179;28;20027;-50
2021/04/09 09:45:00;;;;;;;10.10;7.25;;;16.80;47.60;;;;;;5075231;28;19912;-50
2021/04/09 09:47:33;;;;;;;12.45;7.57;;;17.00;46.20;;;;;;5079833;28;20488;-50
2021/04/09 09:50:05;;;;;;;12.05;7.30;;;16.60;47.20;;;;;;5085020;28;20031;-48
2021/04/09 09:52:58;;;;;;;13.90;7.63;;;16.60;47.60;;;;;;5087129;28;20666;-48
2021/04/09 09:55:28;;;;;;;10.55;7.65;;;16.70;47.00;;;;;;5084722;28;20016;-49
2021/04/09 09:57:53;;;;;;;16.88;8.00;;;17.70;45.40;;;;;;5086570;28;20038;-51
2021/04/09 10:00:34;;;;;;;10.65;7.45;;;17.70;45.30;;;;;;5086309;28;20447;-50
2021/04/09 10:03:16;;;;;;;14.07;7.63;;;17.00;45.20;;;;;;5081167;28;20042;-51
2021/04/09 10:05:48;;;;;;;11.77;8.57;;;17.90;46.60;;;;;;5068360;28;20020;-50
2021/04/09 10:08:14;;;;;;;16.73;8.27;;;18.30;42.80;;;;;;5082739;28;20363;-49
2021/04/09 10:10:45;;;;;;;11.65;7.38;;;17.80;44.10;;;;;;5085007;28;20401;-49
2021/04/09 10:13:18;;;;;;;13.38;7.95;;;17.60;45.60;;;;;;5081621;28;20486;-51
2021/04/09 10:15:45;;;;;;;11.10;7.40;;;18.20;44.50;;;;;;5085876;28;20072;-49
2021/04/09 10:18:10;;;;;;;11.90;7.00;;;18.20;44.40;;;;;;5093396;28;20537;-52
2021/04/09 10:20:36;;;;;;;15.00;8.35;;;18.70;44.30;;;;;;5094900;28;20111;-52
2021/04/09 10:23:01;;;;;;;27.02;18.52;;;19.00;42.70;;;;;;5090939;28;20449;-52
2021/04/09 10:25:34;;;;;;;19.60;10.88;;;19.00;43.70;;;;;;5097552;28;20490;-52
2021/04/09 10:28:03;;;;;;;10.13;7.45;;;18.80;43.70;;;;;;5105674;28;20027;-47
2021/04/09 10:30:30;;;;;;;10.93;7.40;;;18.10;45.00;;;;;;5104645;28;20020;-50
2021/04/09 10:32:56;;;;;;;14.88;7.75;;;18.20;44.30;;;;;;5084861;28;20135;-49
2021/04/09 10:35:26;;;;;;;13.68;7.53;;;18.70;44.10;;;;;;5100061;28;20477;-50
2021/04/09 10:38:14;;;;;;;13.50;7.15;;;17.80;46.00;;;;;;5095732;28;20049;-49
2021/04/09 10:40:53;;;;;;;12.32;7.07;;;17.80;46.80;;;;;;5092033;28;20028;-49
2021/04/09 10:43:35;;;;;;;9.95;6.97;;;17.40;46.30;;;;;;5096328;28;20032;-48
2021/04/09 10:46:05;;;;;;;8.52;6.22;;;17.70;46.20;;;;;;5084701;28;20054;-51
2021/04/09 10:48:33;;;;;;;11.75;6.25;;;18.10;46.70;;;;;;5084058;28;20028;-51
2021/04/09 10:50:58;;;;;;;12.15;6.70;;;18.90;46.30;;;;;;5085656;28;20432;-49
2021/04/09 10:53:24;;;;;;;11.30;6.72;;;19.70;42.50;;;;;;5085702;28;20025;-51
2021/04/09 10:55:51;;;;;;;12.43;6.32;;;18.80;43.90;;;;;;5090560;28;20512;-51
2021/04/09 10:58:17;;;;;;;11.40;7.28;;;19.00;44.10;;;;;;5088024;28;20040;-51
2021/04/09 11:00:44;;;;;;;12.48;6.80;;;19.70;42.30;;;;;;5087026;28;20125;-50
2021/04/09 11:03:12;;;;;;;8.05;6.00;;;20.00;42.10;;;;;;5088711;28;20069;-51
2021/04/09 11:05:39;;;;;;;10.52;6.20;;;19.80;43.30;;;;;;5070627;28;20044;-51
2021/04/09 11:08:05;;;;;;;10.20;5.55;;;18.90;44.00;;;;;;5070065;28;20580;-51
2021/04/09 11:10:32;;;;;;;8.52;5.05;;;19.10;43.10;;;;;;5070155;28;20118;-51
2021/04/09 11:12:57;;;;;;;8.35;5.85;;;18.20;44.90;;;;;;5087814;28;20108;-50
2021/04/09 11:15:23;;;;;;;8.52;6.03;;;16.80;47.10;;;;;;5073145;28;20472;-48
2021/04/09 11:17:59;;;;;;;8.63;5.43;;;16.60;49.00;;;;;;5095832;28;20339;-50
2021/04/09 11:20:34;;;;;;;9.05;5.88;;;16.60;47.50;;;;;;5059891;28;20031;-49
2021/04/09 11:23:10;;;;;;;12.52;6.93;;;16.50;49.30;;;;;;5086389;28;20024;-48
2021/04/09 11:25:44;;;;;;;11.00;5.88;;;16.60;48.40;;;;;;5062911;28;20039;-51
2021/04/09 11:28:24;;;;;;;10.15;5.97;;;17.00;47.30;;;;;;5100005;28;20646;-49
2021/04/09 11:31:01;;;;;;;6.88;5.50;;;17.20;46.90;;;;;;5087068;28;20020;-51
2021/04/09 11:33:40;;;;;;;8.48;6.65;;;17.40;47.30;;;;;;5073340;28;20028;-51
2021/04/09 11:36:20;;;;;;;12.25;6.72;;;16.90;47.20;;;;;;5083451;28;20258;-51
2021/04/09 11:38:47;;;;;;;10.10;6.47;;;16.40;47.20;;;;;;5077504;28;20037;-48
2021/04/09 11:41:32;;;;;;;12.80;7.45;;;15.70;48.10;;;;;;5079661;28;20082;-48
2021/04/09 11:43:59;;;;;;;10.30;6.57;;;16.30;49.50;;;;;;5080769;28;20050;-48
2021/04/09 11:46:32;;;;;;;11.88;6.60;;;16.50;48.60;;;;;;5077498;28;20461;-48
2021/04/09 11:49:02;;;;;;;11.30;7.32;;;17.50;48.50;;;;;;5084634;28;20502;-47
2021/04/09 11:51:29;;;;;;;11.05;6.65;;;17.80;46.50;;;;;;5076178;28;20034;-48
2021/04/09 11:54:13;;;;;;;10.57;6.65;;;18.50;45.40;;;;;;5077746;28;20033;-51
2021/04/09 11:56:47;;;;;;;10.05;6.35;;;18.90;44.80;;;;;;5069259;28;20423;-48
2021/04/09 11:59:18;;;;;;;11.63;6.65;;;18.50;46.00;;;;;;5086359;28;20016;-50
2021/04/09 12:01:45;;;;;;;9.55;5.72;;;18.70;44.70;;;;;;5082106;28;20039;-49
2021/04/09 12:04:39;;;;;;;10.90;6.22;;;18.30;45.70;;;;;;5081496;28;20483;-51
2021/04/09 12:07:22;;;;;;;10.32;5.43;;;18.60;46.80;;;;;;5072815;28;20035;-51
2021/04/09 12:09:56;;;;;;;7.07;6.05;;;18.50;44.20;;;;;;5089541;28;20024;-50
2021/04/09 12:12:23;;;;;;;9.93;5.70;;;17.10;46.60;;;;;;5109809;28;20038;-50
2021/04/09 12:14:56;;;;;;;8.07;6.10;;;17.30;48.80;;;;;;5095623;28;20020;-49
2021/04/09 12:17:24;;;;;;;17.25;6.55;;;16.70;47.60;;;;;;5084867;28;20028;-47
2021/04/09 12:19:52;;;;;;;9.60;5.78;;;16.10;49.60;;;;;;5089123;28;20032;-47
2021/04/09 12:22:18;;;;;;;9.18;6.18;;;15.90;50.80;;;;;;5087783;28;20034;-48
2021/04/09 12:24:44;;;;;;;8.02;5.70;;;14.90;51.80;;;;;;5083413;28;20124;-48
2021/04/09 12:27:10;;;;;;;10.20;6.43;;;14.90;52.90;;;;;;5085522;28;20038;-49
2021/04/09 12:29:36;;;;;;;8.85;6.10;;;14.70;53.70;;;;;;5100685;28;20046;-51
2021/04/09 12:32:03;;;;;;;11.95;5.97;;;14.70;53.50;;;;;;5066836;28;20047;-48
2021/04/09 12:34:29;;;;;;;8.27;5.50;;;14.50;54.00;;;;;;5087530;28;20027;-48
2021/04/09 12:36:54;;;;;;;12.73;6.07;;;14.50;53.80;;;;;;5082237;28;20486;-50
2021/04/09 12:39:21;;;;;;;11.13;6.18;;;14.50;54.00;;;;;;5067951;28;20154;-48
2021/04/09 12:41:47;;;;;;;8.70;5.13;;;14.50;53.60;;;;;;5068616;28;20024;-48
2021/04/09 12:44:15;;;;;;;16.23;6.70;;;14.40;54.70;;;;;;5087633;28;20469;-51
2021/04/09 12:46:42;;;;;;;9.13;5.53;;;14.50;54.60;;;;;;5088783;28;20069;-50
2021/04/09 12:49:07;;;;;;;8.00;5.57;;;14.30;54.40;;;;;;5078429;28;20081;-50
2021/04/09 12:51:33;;;;;;;7.47;4.82;;;14.40;53.80;;;;;;5089194;28;20119;-47
2021/04/09 12:53:59;;;;;;;9.10;5.53;;;14.40;55.10;;;;;;5087722;28;20473;-50
2021/04/09 12:56:25;;;;;;;12.15;5.47;;;14.60;53.20;;;;;;5070792;28;20035;-47